Orbital elements of COSMOS 970 DEB
| Launched | 20 December 1977 |
| Flight ended | – |
| Launch site | Tyuratam Missile and Space Center, Kazakhstan (Also known as Baikonur Cosmodrome) |
| Owner | Commonwealth of Independent States (former USSR) |
| NORAD ID | 10564 |
| Date fetched |
Epoch osculation |
Inc. [°] |
Ecc. | RA asc node [hr] |
Arg Peri. [°] |
Mean anom [°] |
Mean motion [rev/day] |
Abs. mag |
| Date fetched |
Epoch osculation |
Inc. [°] |
Ecc. | RA asc node [hr] |
Arg Peri. [°] |
Mean anom [°] |
Mean motion [rev/day] |
Abs. mag |
| 2026 May 03 17:57 | 2026 Apr 30 08:56:54 | 65.8628 | 0.01385 | 6.1647 | 67.4117 | 94.6709 | 13.70582 | – |
| 2026 May 02 17:57 | 2026 Apr 30 08:56:54 | 65.8628 | 0.01385 | 6.1647 | 67.4117 | 94.6709 | 13.70582 | – |
| 2026 May 01 17:56 | 2026 Apr 30 08:56:54 | 65.8628 | 0.01385 | 6.1647 | 67.4117 | 94.6709 | 13.70582 | – |
| 2026 Apr 30 17:56 | 2026 Apr 30 08:56:54 | 65.8628 | 0.01385 | 6.1647 | 67.4117 | 94.6709 | 13.70582 | – |
| 2026 Apr 29 17:57 | 2026 Apr 24 07:18:26 | 65.8619 | 0.01382 | 7.1559 | 70.6118 | 94.6709 | 13.70582 | – |
| 2026 Apr 28 17:56 | 2026 Apr 24 07:18:26 | 65.8619 | 0.01382 | 7.1559 | 70.6118 | 94.6709 | 13.70582 | – |
| 2026 Apr 27 17:58 | 2026 Apr 24 07:18:26 | 65.8619 | 0.01382 | 7.1559 | 70.6118 | 94.6709 | 13.70582 | – |
| 2026 Apr 26 17:58 | 2026 Apr 24 07:18:26 | 65.8619 | 0.01382 | 7.1559 | 70.6118 | 94.6709 | 13.70582 | – |
| 2026 Apr 25 17:58 | 2026 Apr 24 07:18:26 | 65.8619 | 0.01382 | 7.1559 | 70.6118 | 94.6709 | 13.70582 | – |
| 2026 Apr 24 17:59 | 2026 Apr 24 07:18:26 | 65.8619 | 0.01382 | 7.1559 | 70.6118 | 94.6709 | 13.70582 | – |
| 2026 Apr 23 17:57 | 2026 Apr 19 07:48:56 | 65.8619 | 0.01381 | 7.9691 | 73.2417 | 94.6709 | 13.70582 | – |
| 2026 Apr 22 17:57 | 2026 Apr 19 07:48:56 | 65.8619 | 0.01381 | 7.9691 | 73.2417 | 94.6709 | 13.70582 | – |
| 2026 Apr 21 17:57 | 2026 Apr 19 07:48:56 | 65.8619 | 0.01381 | 7.9691 | 73.2417 | 94.6709 | 13.70582 | – |
| 2026 Apr 20 17:57 | 2026 Apr 19 07:48:56 | 65.8619 | 0.01381 | 7.9691 | 73.2417 | 94.6709 | 13.70582 | – |
| 2026 Apr 19 17:58 | 2026 Apr 19 07:48:56 | 65.8619 | 0.01381 | 7.9691 | 73.2417 | 94.6709 | 13.70582 | – |
| 2026 Apr 18 17:56 | 2026 Apr 13 01:12:59 | 65.8620 | 0.01379 | 8.9940 | 76.5682 | 94.6709 | 13.70582 | – |
| 2026 Apr 16 17:57 | 2026 Apr 13 01:12:59 | 65.8620 | 0.01379 | 8.9940 | 76.5682 | 94.6709 | 13.70582 | – |
| 2026 Apr 14 17:57 | 2026 Apr 13 01:12:59 | 65.8620 | 0.01379 | 8.9940 | 76.5682 | 94.6709 | 13.70582 | – |
| 2026 Apr 13 17:57 | 2026 Apr 13 01:12:59 | 65.8620 | 0.01379 | 8.9940 | 76.5682 | 94.6709 | 13.70582 | – |
| 2026 Apr 12 17:57 | 2026 Apr 08 13:15:47 | 65.8628 | 0.01379 | 9.7287 | 78.9734 | 94.6709 | 13.70582 | – |
| 2026 Apr 11 17:57 | 2026 Apr 08 13:15:47 | 65.8628 | 0.01379 | 9.7287 | 78.9734 | 94.6709 | 13.70582 | – |
| 2026 Apr 10 17:58 | 2026 Apr 08 13:15:47 | 65.8628 | 0.01379 | 9.7287 | 78.9734 | 94.6709 | 13.70582 | – |
| 2026 Apr 09 18:01 | 2026 Apr 08 13:15:47 | 65.8628 | 0.01379 | 9.7287 | 78.9734 | 94.6709 | 13.70582 | – |
| 2026 Apr 08 17:57 | 2026 Apr 08 13:15:47 | 65.8628 | 0.01379 | 9.7287 | 78.9734 | 94.6709 | 13.70582 | – |
| 2026 Apr 07 17:57 | 2026 Apr 02 06:13:29 | 65.8636 | 0.01379 | 10.7565 | 82.3311 | 94.6709 | 13.70582 | – |
| 2026 Apr 06 17:57 | 2026 Apr 02 06:13:29 | 65.8636 | 0.01379 | 10.7565 | 82.3311 | 94.6709 | 13.70582 | – |